createdAt,value
2018-07-28T00:03:44.494Z,27.90
2018-07-28T00:08:47.740Z,28.00
2018-07-28T00:13:51.008Z,28.10
2018-07-28T00:18:54.485Z,27.90
2018-07-28T00:23:57.794Z,27.80
2018-07-28T00:29:01.540Z,27.80
2018-07-28T00:34:04.881Z,27.70
2018-07-28T00:39:10.390Z,27.70
2018-07-28T00:44:13.658Z,27.70
2018-07-28T00:49:16.902Z,27.60
2018-07-28T00:54:20.147Z,27.50
2018-07-28T00:59:23.438Z,27.50
2018-07-28T01:04:26.694Z,27.40
2018-07-28T01:09:29.942Z,27.30
2018-07-28T01:14:33.211Z,27.40
2018-07-28T01:19:36.488Z,27.30
2018-07-28T01:24:39.815Z,27.40
2018-07-28T01:29:43.221Z,27.50
2018-07-28T01:34:46.486Z,27.70
2018-07-28T01:39:49.738Z,27.60
2018-07-28T01:44:53.046Z,27.40
2018-07-28T01:49:56.363Z,27.30
2018-07-28T01:54:59.631Z,27.40
2018-07-28T02:00:03.102Z,27.40
2018-07-28T02:05:07.686Z,27.30
2018-07-28T02:10:10.991Z,26.30
2018-07-28T02:15:14.264Z,25.80
2018-07-28T02:20:17.594Z,25.70
2018-07-28T02:25:20.866Z,25.70
2018-07-28T02:30:24.124Z,25.30
2018-07-28T02:35:27.408Z,25.30
2018-07-28T02:40:30.688Z,25.20
2018-07-28T02:45:33.967Z,25.10
2018-07-28T02:50:37.230Z,25.00
2018-07-28T02:55:40.475Z,25.00
2018-07-28T03:00:43.913Z,25.20
2018-07-28T03:05:47.199Z,25.20
2018-07-28T03:10:50.480Z,25.30
2018-07-28T03:15:53.829Z,25.10
2018-07-28T03:20:57.110Z,25.10
2018-07-28T03:26:00.383Z,25.10
2018-07-28T03:31:03.719Z,25.10
2018-07-28T03:36:07.013Z,25.10
2018-07-28T03:41:17.162Z,24.50
2018-07-28T03:46:20.566Z,24.90
2018-07-28T03:51:23.927Z,25.00
2018-07-28T03:56:27.254Z,25.10
2018-07-28T04:01:30.535Z,25.40
2018-07-28T04:06:33.862Z,25.40
2018-07-28T04:11:37.136Z,24.80
2018-07-28T04:16:40.446Z,24.50
2018-07-28T04:21:43.719Z,24.30
2018-07-28T04:26:46.979Z,23.80
2018-07-28T04:31:50.243Z,24.00
2018-07-28T04:36:53.690Z,25.20
2018-07-28T04:41:56.925Z,25.50
2018-07-28T04:47:00.239Z,26.10
2018-07-28T04:52:03.493Z,26.40
2018-07-28T04:57:06.779Z,26.10
2018-07-28T05:02:10.113Z,25.50
2018-07-28T05:07:13.413Z,25.00
2018-07-28T05:12:16.647Z,24.90
2018-07-28T05:17:20.155Z,25.20
2018-07-28T05:22:23.442Z,24.30
2018-07-28T05:27:26.712Z,24.70
2018-07-28T05:32:30.170Z,24.30
2018-07-28T05:37:33.427Z,24.80
2018-07-28T05:42:36.714Z,25.10
2018-07-28T05:47:39.948Z,24.60
2018-07-28T05:52:43.183Z,24.40
2018-07-28T05:57:46.420Z,24.70
2018-07-28T06:02:49.736Z,24.50
2018-07-28T06:07:52.972Z,24.40
2018-07-28T06:12:56.214Z,24.90
2018-07-28T06:17:59.471Z,24.60
2018-07-28T06:23:02.863Z,24.40
2018-07-28T06:28:06.236Z,24.80
2018-07-28T06:33:09.537Z,24.60
2018-07-28T06:38:12.784Z,24.60
2018-07-28T06:43:16.059Z,24.20
2018-07-28T06:48:19.313Z,24.50
2018-07-28T06:53:22.550Z,24.60
2018-07-28T06:58:25.916Z,24.80
2018-07-28T07:03:29.159Z,24.60
2018-07-28T07:08:32.479Z,25.00
2018-07-28T07:13:35.714Z,25.20
2018-07-28T07:18:39.000Z,25.50
2018-07-28T07:23:42.283Z,25.90
2018-07-28T07:28:45.533Z,25.50
2018-07-28T07:33:48.838Z,25.40
2018-07-28T07:38:52.091Z,25.60
2018-07-28T07:43:55.378Z,25.20
2018-07-28T07:48:58.650Z,25.30
2018-07-28T07:54:02.150Z,25.50
2018-07-28T07:59:05.406Z,26.00
2018-07-28T08:04:08.706Z,26.30
2018-07-28T08:09:11.958Z,26.30
2018-07-28T08:14:15.307Z,26.30
2018-07-28T08:19:18.732Z,26.30
2018-07-28T08:24:22.029Z,26.40
2018-07-28T08:29:25.296Z,26.50
2018-07-28T08:34:28.591Z,26.80
2018-07-28T08:39:31.850Z,27.30
2018-07-28T08:44:35.111Z,27.60
2018-07-28T08:49:38.460Z,27.50
2018-07-28T08:54:41.639Z,27.50
2018-07-28T08:59:44.880Z,27.10
2018-07-28T09:04:48.129Z,27.30
2018-07-28T09:09:51.371Z,26.90
2018-07-28T09:14:54.735Z,27.40
2018-07-28T09:19:57.989Z,27.20
2018-07-28T09:25:01.453Z,27.00
2018-07-28T09:30:05.574Z,27.20
2018-07-28T09:35:08.854Z,27.50
2018-07-28T09:40:12.110Z,27.80
2018-07-28T09:45:15.393Z,28.10
2018-07-28T09:50:19.512Z,28.00
2018-07-28T09:55:22.794Z,27.90
2018-07-28T10:00:31.436Z,28.10
2018-07-28T10:05:34.873Z,28.40
2018-07-28T10:10:38.075Z,28.70
2018-07-28T10:15:41.321Z,29.00
2018-07-28T10:20:44.586Z,29.90
2018-07-28T10:25:47.826Z,30.10
2018-07-28T10:30:51.164Z,30.90
2018-07-28T10:35:54.426Z,31.00
2018-07-28T10:40:57.682Z,29.40
2018-07-28T10:46:00.935Z,28.60
2018-07-28T10:51:04.482Z,29.00
2018-07-28T10:56:07.714Z,30.50
2018-07-28T11:01:11.074Z,30.10
2018-07-28T11:06:14.323Z,29.40
2018-07-28T11:11:17.612Z,30.00
2018-07-28T11:16:20.853Z,30.70
2018-07-28T11:21:24.127Z,32.40
2018-07-28T11:26:27.605Z,32.10
2018-07-28T11:31:42.112Z,31.10
2018-07-28T11:36:56.889Z,30.40
2018-07-28T11:42:11.467Z,30.40
2018-07-28T11:47:14.699Z,30.70
2018-07-28T11:52:17.952Z,32.60
2018-07-28T11:57:21.224Z,31.50
2018-07-28T12:07:27.509Z,31.60
2018-07-28T12:12:30.864Z,31.20
2018-07-28T12:17:34.095Z,33.40
2018-07-28T12:22:37.342Z,33.40
2018-07-28T12:27:40.610Z,33.10
2018-07-28T12:32:43.867Z,31.90
2018-07-28T12:37:47.212Z,31.40
2018-07-28T12:42:50.444Z,32.10
2018-07-28T12:47:53.674Z,32.00
2018-07-28T12:52:56.935Z,31.30
2018-07-28T12:58:00.236Z,31.40
2018-07-28T13:03:03.523Z,30.70
2018-07-28T13:08:06.843Z,30.90
2018-07-28T13:13:10.103Z,30.90
2018-07-28T13:18:13.391Z,30.70
2018-07-28T13:23:16.660Z,30.50
2018-07-28T13:28:20.015Z,30.30
2018-07-28T13:33:23.263Z,31.60
2018-07-28T13:38:26.515Z,31.90
2018-07-28T13:43:29.802Z,30.80
2018-07-28T13:48:33.091Z,30.90
2018-07-28T13:53:36.402Z,30.20
2018-07-28T14:03:42.670Z,30.00
2018-07-28T14:08:45.979Z,30.20
2018-07-28T14:13:49.215Z,30.80
2018-07-28T14:18:52.469Z,30.30
2018-07-28T14:23:55.842Z,30.40
2018-07-28T14:28:59.231Z,29.70
2018-07-28T14:34:02.515Z,29.60
2018-07-28T14:39:07.878Z,29.90
2018-07-28T14:44:11.166Z,30.60
2018-07-28T14:49:14.434Z,30.30
2018-07-28T14:54:17.749Z,29.80
2018-07-28T14:59:21.023Z,30.00
2018-07-28T15:04:24.282Z,30.50
2018-07-28T15:09:27.574Z,30.40
2018-07-28T15:14:30.817Z,30.60
2018-07-28T15:19:34.059Z,30.70
2018-07-28T15:24:37.334Z,30.10
2018-07-28T15:29:40.643Z,29.80
2018-07-28T15:34:43.936Z,29.60
2018-07-28T15:39:47.998Z,29.90
2018-07-28T15:44:51.366Z,29.70
2018-07-28T15:49:54.735Z,29.10
2018-07-28T15:54:57.989Z,29.30
2018-07-28T16:00:01.238Z,28.90
2018-07-28T16:05:04.644Z,29.40
2018-07-28T16:10:08.106Z,29.10
2018-07-28T16:15:11.354Z,28.90
2018-07-28T16:20:14.709Z,28.50
2018-07-28T16:25:18.761Z,28.50
2018-07-28T16:30:22.038Z,28.30
2018-07-28T16:35:25.344Z,27.90
2018-07-28T16:40:28.655Z,28.20
2018-07-28T16:45:31.938Z,28.50
2018-07-28T16:50:35.353Z,28.20
2018-07-28T16:55:39.494Z,28.00
2018-07-28T17:00:42.879Z,28.30
2018-07-28T17:05:46.110Z,28.40
2018-07-28T17:10:49.434Z,28.10
2018-07-28T17:15:52.760Z,28.00
2018-07-28T17:20:56.102Z,27.90
2018-07-28T17:25:59.375Z,27.80
2018-07-28T17:31:03.782Z,27.80
2018-07-28T17:36:06.983Z,27.70
2018-07-28T17:41:10.552Z,27.30
2018-07-28T17:46:13.631Z,27.10
2018-07-28T17:51:16.890Z,27.10
2018-07-28T17:56:20.159Z,27.10
2018-07-28T18:01:23.423Z,27.30
2018-07-28T18:06:26.752Z,27.30
2018-07-28T18:11:30.029Z,26.80
2018-07-28T18:16:33.293Z,27.00
2018-07-28T18:21:36.551Z,26.70
2018-07-28T18:26:39.850Z,26.70
2018-07-28T18:31:43.279Z,26.80
2018-07-28T18:36:46.644Z,26.60
2018-07-28T18:41:49.956Z,26.30
2018-07-28T18:46:53.267Z,26.40
2018-07-28T18:51:56.551Z,26.40
2018-07-28T18:56:59.863Z,26.50
2018-07-28T19:02:03.142Z,26.20
2018-07-28T19:07:06.468Z,26.30
2018-07-28T19:12:09.771Z,26.00
2018-07-28T19:17:13.066Z,25.90
2018-07-28T19:22:21.606Z,25.50
2018-07-28T19:27:24.902Z,25.50
2018-07-28T19:32:28.327Z,25.00
2018-07-28T19:37:31.587Z,24.90
2018-07-28T19:42:40.254Z,24.60
2018-07-28T19:52:46.514Z,24.50
2018-07-28T19:57:49.767Z,24.40
2018-07-28T20:02:53.040Z,24.30
2018-07-28T20:07:56.315Z,24.50
2018-07-28T20:13:06.085Z,24.50
2018-07-28T20:18:09.338Z,24.40
2018-07-28T20:23:12.592Z,24.10
2018-07-28T20:28:15.839Z,24.10
2018-07-28T20:33:19.131Z,24.20
2018-07-28T20:38:23.067Z,24.20
2018-07-28T20:43:26.339Z,24.30
2018-07-28T20:48:29.602Z,24.30
2018-07-28T20:53:32.895Z,24.20
2018-07-28T20:58:37.238Z,24.40
2018-07-28T21:03:40.475Z,24.30
2018-07-28T21:08:43.751Z,24.30
2018-07-28T21:13:47.065Z,24.20
2018-07-28T21:18:50.303Z,24.40
2018-07-28T21:23:53.530Z,24.40
2018-07-28T21:28:57.670Z,24.30
2018-07-28T21:34:00.894Z,24.20
2018-07-28T21:39:05.795Z,23.90
2018-07-28T21:44:09.142Z,23.80
2018-07-28T21:49:12.414Z,23.90
2018-07-28T21:54:15.670Z,23.80
2018-07-28T21:59:19.166Z,23.80
2018-07-28T22:04:25.245Z,23.70
2018-07-28T22:09:28.523Z,23.80
2018-07-28T22:14:31.779Z,23.90
2018-07-28T22:19:35.051Z,23.50
2018-07-28T22:24:38.549Z,23.10
2018-07-28T22:29:41.808Z,22.80
2018-07-28T22:34:45.188Z,23.20
2018-07-28T22:39:48.478Z,23.40
2018-07-28T22:44:51.756Z,23.30
2018-07-28T22:49:55.103Z,23.30
2018-07-28T22:54:58.410Z,23.00
2018-07-28T23:00:01.865Z,22.10
2018-07-28T23:05:05.380Z,21.80
2018-07-28T23:10:08.702Z,21.50
2018-07-28T23:15:12.210Z,21.30
2018-07-28T23:20:16.146Z,21.10
2018-07-28T23:25:19.399Z,20.80
2018-07-28T23:30:22.659Z,20.70
2018-07-28T23:35:25.913Z,20.80
2018-07-28T23:40:29.308Z,21.10
2018-07-28T23:45:32.551Z,20.90
2018-07-28T23:50:35.862Z,21.30
2018-07-28T23:55:39.136Z,20.80
